PWSweather.com
Personal Weather Stations
Station Observations
TARRYHILL
Tarrytown, NY 10591

Tarrytown, NY 10591

Lat: 41.05185, Lon: -73.85296

Elevation: 341

Station Type: Davis Vantage Vue

www.tarrytownnyweather.com

High Low Average
Temperature 63.1°F17.3°C 55.4°F13.0°C 58.1°F14.5°C
Dew Point 58.4°F14.7°C 54.7°F12.6°C 56.4°F13.6°C
Winds 2.3 mph 3.7 kmh Calm Calm Calm SSWCalm SSW
Wind Gusts 6.9 mph11.1 kmh -- 1.0 mph1.6 kmh
Humidity 98% 81% 94%
Pressure 30.14 in1020.7 mb 30.02 in1016.6 mb -
Precipitation 0.77 in19.6 mm - -
Hour Temp Dew Point Humidity Winds Wind Gusts Pressure Precip Precip Rate Daily Precip Total
12:00 AM 59.6°F15.3°C 57.9°F14.4°C 94% Calm Calm -- 30.02 in1016.6 mb - 0.00 in0.0 mm 0.00 in0.0 mm
12:30 AM 58.9°F14.9°C 57.5°F14.2°C 95% Calm Calm -- 30.01 in1016.3 mb - 0.00 in0.0 mm 0.00 in0.0 mm
01:00 AM 59.0°F15.0°C 57.6°F14.2°C 95% Calm Calm -- 30.02 in1016.6 mb - 0.00 in0.0 mm 0.00 in0.0 mm
01:30 AM 58.4°F14.7°C 57.0°F13.9°C 95% Calm Calm -- 30.02 in1016.6 mb - 0.00 in0.0 mm 0.00 in0.0 mm
02:00 AM 57.8°F14.3°C 56.7°F13.7°C 96% Calm Calm 1.2 mph1.9 kmh 30.03 in1016.9 mb - 0.00 in0.0 mm 0.00 in0.0 mm
02:30 AM 57.8°F14.3°C 56.7°F13.7°C 96% Calm Calm -- 30.03 in1016.9 mb - 0.00 in0.0 mm 0.00 in0.0 mm
03:00 AM 57.5°F14.2°C 56.4°F13.6°C 96% Calm Calm -- 30.02 in1016.6 mb - 0.00 in0.0 mm 0.00 in0.0 mm
03:30 AM 57.4°F14.1°C 56.3°F13.5°C 96% Calm Calm -- 30.03 in1016.9 mb - 0.00 in0.0 mm 0.00 in0.0 mm
04:00 AM 57.6°F14.2°C 56.5°F13.6°C 96% Calm Calm -- 30.03 in1016.9 mb - 0.00 in0.0 mm 0.00 in0.0 mm
04:30 AM 57.9°F14.4°C 56.8°F13.8°C 96% Calm Calm -- 30.04 in1017.3 mb - 0.00 in0.0 mm 0.00 in0.0 mm
05:00 AM 58.2°F14.6°C 57.1°F13.9°C 96% Calm Calm -- 30.05 in1017.6 mb - 0.00 in0.0 mm 0.00 in0.0 mm
05:30 AM 58.1°F14.5°C 56.7°F13.7°C 95% Calm Calm -- 30.05 in1017.6 mb - 0.00 in0.0 mm 0.00 in0.0 mm
06:00 AM 58.0°F14.4°C 56.6°F13.7°C 95% Calm Calm -- 30.06 in1017.9 mb - 0.00 in0.0 mm 0.00 in0.0 mm
06:30 AM 58.1°F14.5°C 56.7°F13.7°C 95% Calm Calm -- 30.08 in1018.6 mb - 0.00 in0.0 mm 0.00 in0.0 mm
07:00 AM 58.8°F14.9°C 57.1°F13.9°C 94% Calm Calm -- 30.09 in1019.0 mb - 0.00 in0.0 mm 0.00 in0.0 mm
07:30 AM 59.4°F15.2°C 57.7°F14.3°C 94% Calm Calm -- 30.10 in1019.3 mb - 0.00 in0.0 mm 0.00 in0.0 mm
08:00 AM 60.4°F15.8°C 58.4°F14.7°C 93% Calm Calm 1.2 mph1.9 kmh 30.11 in1019.6 mb - 0.00 in0.0 mm 0.00 in0.0 mm
08:30 AM 62.0°F16.7°C 58.4°F14.7°C 88% 1.2 mph NW1.9 kmh NW 2.3 mph3.7 kmh 30.11 in1019.6 mb - 0.00 in0.0 mm 0.00 in0.0 mm
09:00 AM 62.5°F16.9°C 57.6°F14.2°C 84% Calm Calm 1.2 mph1.9 kmh 30.11 in1019.6 mb - 0.00 in0.0 mm 0.00 in0.0 mm
09:30 AM 62.6°F17.0°C 58.4°F14.7°C 86% Calm Calm 2.3 mph3.7 kmh 30.11 in1019.6 mb - 0.00 in0.0 mm 0.00 in0.0 mm
10:00 AM 62.9°F17.2°C 58.3°F14.6°C 85% 1.2 mph S1.9 kmh S 1.2 mph1.9 kmh 30.11 in1019.6 mb - 0.00 in0.0 mm 0.00 in0.0 mm
10:30 AM 63.1°F17.3°C 57.5°F14.2°C 82% 1.2 mph SE1.9 kmh SE 1.2 mph1.9 kmh 30.12 in1020.0 mb - 0.00 in0.0 mm 0.00 in0.0 mm
11:00 AM 61.2°F16.2°C 55.3°F12.9°C 81% 1.2 mph ESE1.9 kmh ESE 2.3 mph3.7 kmh 30.14 in1020.7 mb - 0.01 in0.3 mm 0.01 in0.3 mm
11:30 AM 58.7°F14.8°C 55.8°F13.2°C 90% Calm Calm 2.3 mph3.7 kmh 30.14 in1020.7 mb - 0.05 in1.3 mm 0.06 in1.5 mm
12:00 PM 58.6°F14.8°C 56.0°F13.3°C 91% Calm Calm -- 30.14 in1020.7 mb - 0.00 in0.0 mm 0.06 in1.5 mm
12:30 PM 57.8°F14.3°C 55.5°F13.1°C 92% Calm Calm 1.2 mph1.9 kmh 30.14 in1020.7 mb - 0.05 in1.3 mm 0.11 in2.8 mm
01:00 PM 57.3°F14.1°C 55.6°F13.1°C 94% Calm Calm 2.3 mph3.7 kmh 30.13 in1020.3 mb - 0.06 in1.5 mm 0.17 in4.3 mm
01:30 PM 57.4°F14.1°C 56.0°F13.3°C 95% Calm Calm 1.2 mph1.9 kmh 30.13 in1020.3 mb - 0.00 in0.0 mm 0.17 in4.3 mm
02:00 PM 57.9°F14.4°C 56.5°F13.6°C 95% Calm Calm -- 30.13 in1020.3 mb - 0.03 in0.8 mm 0.20 in5.1 mm
02:30 PM 58.1°F14.5°C 56.9°F13.8°C 96% Calm Calm -- 30.14 in1020.7 mb - 0.07 in1.8 mm 0.27 in6.9 mm
03:00 PM 58.2°F14.6°C 57.1°F13.9°C 96% Calm Calm -- 30.12 in1020.0 mb - 0.14 in3.6 mm 0.40 in10.2 mm
03:30 PM 58.4°F14.7°C 57.3°F14.1°C 96% 1.2 mph NW1.9 kmh NW 3.5 mph5.6 kmh 30.12 in1020.0 mb - 0.04 in1.0 mm 0.43 in10.9 mm
04:00 PM 58.4°F14.7°C 57.3°F14.1°C 96% 1.2 mph NW1.9 kmh NW 3.5 mph5.6 kmh 30.11 in1019.6 mb - 0.02 in0.5 mm 0.45 in11.4 mm
04:30 PM 58.0°F14.4°C 56.9°F13.8°C 96% 2.3 mph SSE3.7 kmh SSE 6.9 mph11.1 kmh 30.11 in1019.6 mb - 0.01 in0.3 mm 0.46 in11.7 mm
05:00 PM 57.6°F14.2°C 56.5°F13.6°C 96% Calm Calm 2.3 mph3.7 kmh 30.11 in1019.6 mb - 0.04 in1.0 mm 0.50 in12.7 mm
05:30 PM 57.3°F14.1°C 56.2°F13.4°C 96% Calm Calm 1.2 mph1.9 kmh 30.11 in1019.6 mb - 0.10 in2.5 mm 0.60 in15.2 mm
06:00 PM 57.3°F14.1°C 56.2°F13.4°C 96% Calm Calm 2.3 mph3.7 kmh 30.11 in1019.6 mb - 0.06 in1.5 mm 0.66 in16.8 mm
06:30 PM 56.8°F13.8°C 55.7°F13.2°C 96% 2.3 mph ESE3.7 kmh ESE 3.5 mph5.6 kmh 30.10 in1019.3 mb - 0.04 in1.0 mm 0.70 in17.8 mm
07:00 PM 56.6°F13.7°C 55.8°F13.2°C 97% Calm Calm 2.3 mph3.7 kmh 30.09 in1019.0 mb - 0.04 in1.0 mm 0.74 in18.8 mm
07:30 PM 56.3°F13.5°C 55.5°F13.1°C 97% Calm Calm 1.2 mph1.9 kmh 30.09 in1019.0 mb - 0.01 in0.3 mm 0.75 in19.1 mm
08:00 PM 56.2°F13.4°C 55.4°F13.0°C 97% Calm Calm -- 30.10 in1019.3 mb - 0.01 in0.3 mm 0.76 in19.3 mm
08:30 PM 56.1°F13.4°C 55.3°F12.9°C 97% Calm Calm 1.2 mph1.9 kmh 30.10 in1019.3 mb - 0.00 in0.0 mm 0.76 in19.3 mm
09:00 PM 55.9°F13.3°C 55.1°F12.8°C 97% Calm Calm -- 30.09 in1019.0 mb - 0.01 in0.3 mm 0.77 in19.6 mm
09:30 PM 55.8°F13.2°C 55.0°F12.8°C 97% Calm Calm -- 30.08 in1018.6 mb - 0.00 in0.0 mm 0.77 in19.6 mm
10:00 PM 55.8°F13.2°C 55.0°F12.8°C 97% Calm Calm -- 30.08 in1018.6 mb - 0.00 in0.0 mm 0.77 in19.6 mm
10:30 PM 55.6°F13.1°C 54.8°F12.7°C 97% Calm Calm -- 30.08 in1018.6 mb - 0.00 in0.0 mm 0.77 in19.6 mm
11:00 PM 55.5°F13.1°C 54.7°F12.6°C 97% Calm Calm -- 30.07 in1018.3 mb - 0.00 in0.0 mm 0.77 in19.6 mm
11:30 PM 55.5°F13.1°C 54.9°F12.7°C 98% Calm Calm -- 30.05 in1017.6 mb - 0.00 in0.0 mm 0.77 in19.6 mm